メインページ
METAR-TAF:

METAR-TAF

空港 :

Brooks Field

マーシャル, ミシガン州, アメリカ合衆国

緯度: 42-15-04N, 経度: 084-57-20W, 海抜: 287m

現時点の気象観測

当レポートは11分前の10:55(UTC)に作成
南西の風 9kt
気温 -4°C
湿度 63%
気圧 1024 hPa
視程: 16.1km
晴天

METAR: KRMY 221055Z AUTO 23009KT 10SM CLR M04/M10 A3023 RMK AO2 T10401105

時間: 06:06 (11:06 UTC)


TAF: 見つかりません

4,000以上の空港の気象観測と天気予報(METAR報とTAF報)

利用可能な観測所は地図上に黄色い丸と赤い丸で示す。

丸の上にカーソルを重ねると観測所名を参照できる。

次にクリックすると気象観測と天気予報を参照できる。

マップの切り替え:黒色「×」印の緑ボタンをクリックして拡大、「-」印の緑ボタンをクリックして縮小、緑色の三角印をクリックして隣りの地図に切り替え


METAR-TAF: